Surface observations / UK / EGOM

Quebec | Canada | USA | France | UK | Europe | Elsewhere

Display: Info & Location for EGOM | Help decoding METAR


Raw surface observations for station EGOM
EGOM 180650Z AUTO 08007KT 2700 BKN001/// BKN008/// 13/13 Q1013=
EGOM 180550Z AUTO 08008KT 0600 FG VV/// 13/13 Q1013=
EGOM 180450Z AUTO 07009KT 0350 FG VV/// 13/13 Q1013=
EGOM 180350Z AUTO 08007KT 0250 -DZ VV/// 14/14 Q1013=
EGOM 180250Z AUTO 06008KT 0300 DZ VV/// 14/14 Q1013=
EGOM 180150Z AUTO 06008KT 0200 FG VV/// 14/13 Q1013=
EGOM 180050Z AUTO 06007KT 0250 FG VV/// 14/14 Q1013=
EGOM 172350Z AUTO 08005KT 0550 FG VV/// 14/14 Q1014=
EGOM 172250Z AUTO 06007KT 1800 BR BKN001/// 14/14 Q1014=
EGOM 172150Z AUTO 05006KT 2100 BR BKN002/// BKN015/// 14/13 Q1014=
EGOM 172050Z AUTO 06006KT 6000 BR OVC014/// 14/13 Q1014=
EGOM 171950Z AUTO 05007KT 6000 BR BKN014/// OVC050/// 14/13 Q1014=
EGOM 171850Z AUTO 06007KT 8000 HZ OVC016/// 14/13 Q1014=
EGOM 171750Z AUTO 06008KT 9999 OVC016/// 15/13 Q1014=
EGOM 171650Z AUTO 06007KT 9999 BKN011/// 15/13 Q1014=
EGOM 171550Z AUTO 08008KT 9999 BKN019/// 17/13 Q1014=
EGOM 171450Z 08007KT 9999 SCT020 18/13 Q1014 WHT=
EGOM 171350Z 07006KT 9999 BKN024 17/13 Q1015 WHT=
EGOM 171250Z 06008KT 9999 BKN014 16/12 Q1015 GRN=
EGOM 171150Z AUTO 07005KT 9999 OVC011/// 15/12 Q1015=
EGOM 171050Z AUTO 07007KT 9999 FEW008/// BKN011/// 15/12 Q1015=
EGOM 170950Z AUTO 07010KT 7000 HZ OVC004/// 13/12 Q1016=
EGOM 170850Z AUTO 08007KT 8000 BR OVC003/// 13/12 Q1016=
EGOM 170750Z AUTO 07007KT 3100 BR OVC002/// 11/11 Q1016=
EGOM 170650Z AUTO 08009KT 4600 BR OVC002/// 11/11 Q1016=